Time;durP1;ratioP1;P1;durP2;ratioP2;P2;SDS_P1;SDS_P2;PMS_P1;PMS_P2;Temp;Humidity;BMP_temperature;BMP_pressure;BME280_temperature;BME280_humidity;BME280_pressure;Samples;Min_cycle;Max_cycle;Signal;HPM_P1;HPM_P2
2021/12/13 00:01:52;;;;;;;69.63;26.80;;;10.60;99.90;;;;;;5012686;28;20041;-52
2021/12/13 00:04:43;;;;;;;63.23;26.03;;;10.60;99.90;;;;;;5012644;28;20045;-52
2021/12/13 00:07:22;;;;;;;80.93;27.85;;;10.80;99.90;;;;;;5001239;28;20288;-54
2021/12/13 00:09:51;;;;;;;76.50;27.73;;;10.60;99.90;;;;;;5012381;28;20393;-53
2021/12/13 00:12:23;;;;;;;81.22;27.77;;;10.60;99.90;;;;;;5011113;28;20753;-54
2021/12/13 00:14:51;;;;;;;82.63;27.77;;;10.60;99.90;;;;;;5012539;28;20041;-53
2021/12/13 00:17:24;;;;;;;71.57;26.55;;;10.60;99.90;;;;;;5012644;28;20041;-55
2021/12/13 00:20:04;;;;;;;70.45;26.83;;;10.60;99.90;;;;;;5012521;28;20048;-55
2021/12/13 00:22:37;;;;;;;67.28;27.83;;;10.60;99.90;;;;;;5008107;28;20073;-56
2021/12/13 00:25:15;;;;;;;68.80;27.23;;;10.60;99.90;;;;;;5012164;28;20049;-56
2021/12/13 00:27:54;;;;;;;64.78;26.05;;;10.60;99.90;;;;;;4994424;28;20049;-54
2021/12/13 00:30:25;;;;;;;64.15;26.17;;;10.60;99.90;;;;;;5012567;28;20072;-57
2021/12/13 00:33:11;;;;;;;65.60;26.48;;;10.60;99.90;;;;;;5011971;28;20513;-55
2021/12/13 00:35:50;;;;;;;58.10;25.58;;;10.60;99.90;;;;;;5012689;28;20038;-55
2021/12/13 00:38:24;;;;;;;59.88;24.02;;;10.60;99.90;;;;;;5012262;28;20038;-54
2021/12/13 00:41:00;;;;;;;55.22;24.58;;;10.60;99.90;;;;;;4994584;28;20053;-54
2021/12/13 00:43:35;;;;;;;65.15;24.60;;;10.60;99.90;;;;;;5011580;28;20030;-56
2021/12/13 00:46:05;;;;;;;64.45;26.15;;;10.60;99.90;;;;;;5011896;28;20065;-54
2021/12/13 00:48:33;;;;;;;68.30;25.73;;;10.70;99.90;;;;;;5012024;28;20510;-56
2021/12/13 00:51:06;;;;;;;58.92;26.10;;;10.60;99.90;;;;;;5011719;28;20046;-54
2021/12/13 00:53:35;;;;;;;68.43;25.65;;;10.60;99.90;;;;;;5011411;28;20137;-54
2021/12/13 00:56:39;;;;;;;63.63;26.02;;;10.60;99.90;;;;;;5011667;28;20113;-55
2021/12/13 00:59:05;;;;;;;57.42;24.90;;;10.70;99.90;;;;;;5011442;28;20417;-55
2021/12/13 01:01:31;;;;;;;63.22;25.58;;;10.70;99.90;;;;;;5011727;28;20077;-56
2021/12/13 01:03:57;;;;;;;57.38;24.33;;;10.70;99.90;;;;;;5011445;28;20073;-56
2021/12/13 01:07:00;;;;;;;55.13;24.60;;;10.70;99.90;;;;;;5011461;28;20093;-55
2021/12/13 01:10:11;;;;;;;57.33;23.27;;;10.70;99.90;;;;;;5011351;28;20038;-52
2021/12/13 01:12:37;;;;;;;48.88;21.20;;;10.70;99.90;;;;;;5009059;28;20038;-52
2021/12/13 01:15:11;;;;;;;51.33;23.08;;;10.70;99.90;;;;;;5011597;28;20038;-52
2021/12/13 01:17:49;;;;;;;47.13;22.05;;;10.90;99.90;;;;;;4993717;28;20124;-52
2021/12/13 01:20:55;;;;;;;52.10;22.38;;;10.70;99.90;;;;;;4994023;28;20139;-53
2021/12/13 01:23:39;;;;;;;52.47;22.58;;;10.70;99.90;;;;;;5011661;28;20050;-54
2021/12/13 01:28:51;;;;;;;45.28;21.85;;;10.70;99.90;;;;;;5010808;28;20042;-51
2021/12/13 01:31:21;;;;;;;43.53;21.40;;;10.70;99.90;;;;;;4992434;28;20521;-55
2021/12/13 01:33:47;;;;;;;44.50;20.38;;;10.70;99.90;;;;;;5012246;28;20181;-57
2021/12/13 01:36:23;;;;;;;39.92;19.70;;;10.70;99.90;;;;;;5015470;28;20485;-55
2021/12/13 01:38:58;;;;;;;40.13;19.60;;;10.70;99.90;;;;;;5014407;28;20053;-57
2021/12/13 01:41:40;;;;;;;33.70;17.95;;;10.70;99.90;;;;;;5019277;28;20120;-55
2021/12/13 01:44:24;;;;;;;33.80;17.90;;;10.70;99.90;;;;;;5018505;28;20673;-56
2021/12/13 01:46:55;;;;;;;40.72;19.60;;;10.60;99.90;;;;;;5019972;28;20062;-57
2021/12/13 01:49:29;;;;;;;37.88;18.77;;;10.60;99.90;;;;;;5019565;28;20034;-57
2021/12/13 01:51:58;;;;;;;39.55;19.73;;;10.60;99.90;;;;;;5001577;28;20053;-57
2021/12/13 01:54:24;;;;;;;38.10;19.10;;;10.60;99.90;;;;;;5019053;28;20053;-57
2021/12/13 01:57:48;;;;;;;39.25;20.88;;;10.60;99.90;;;;;;5018884;28;20253;-55
2021/12/13 02:00:07;;;;;;;45.47;20.65;;;10.60;99.90;;;;;;4986083;28;20053;-57
2021/12/13 02:02:39;;;;;;;38.40;20.02;;;10.60;99.90;;;;;;5013324;28;20485;-57
2021/12/13 02:05:10;;;;;;;39.75;20.95;;;10.60;99.90;;;;;;5015513;28;20034;-55
2021/12/13 02:07:41;;;;;;;47.33;21.50;;;10.60;99.90;;;;;;5015202;28;20042;-57
2021/12/13 02:10:23;;;;;;;45.85;21.63;;;10.60;99.90;;;;;;5015110;28;20068;-57
2021/12/13 02:12:55;;;;;;;48.28;22.95;;;10.60;99.90;;;;;;5014758;28;20045;-57
2021/12/13 02:18:10;;;;;;;48.35;22.55;;;10.60;99.90;;;;;;5007042;28;20112;-57
2021/12/13 02:20:41;;;;;;;47.38;23.35;;;10.60;99.90;;;;;;5014299;28;20045;-57
2021/12/13 02:23:06;;;;;;;45.20;23.33;;;10.60;99.90;;;;;;4996994;28;20083;-55
2021/12/13 02:25:39;;;;;;;46.10;23.48;;;10.50;99.90;;;;;;5015243;28;20069;-54
2021/12/13 02:28:14;;;;;;;40.35;22.13;;;10.60;99.90;;;;;;5014903;28;20044;-56
2021/12/13 02:31:09;;;;;;;41.05;21.98;;;10.50;99.90;;;;;;5014456;28;20413;-51
2021/12/13 02:33:47;;;;;;;43.97;21.23;;;10.50;99.90;;;;;;5014401;28;20046;-51
2021/12/13 02:36:20;;;;;;;38.95;22.00;;;10.50;99.90;;;;;;5014309;28;20468;-55
2021/12/13 02:38:49;;;;;;;43.30;21.85;;;10.50;99.90;;;;;;5014465;28;20042;-52
2021/12/13 02:41:17;;;;;;;42.78;21.42;;;10.50;99.90;;;;;;5014367;28;20063;-51
2021/12/13 02:43:46;;;;;;;40.80;20.88;;;10.50;99.90;;;;;;5014114;28;20104;-55
2021/12/13 02:46:13;;;;;;;39.63;19.80;;;10.40;99.90;;;;;;5013921;28;20037;-52
2021/12/13 02:48:40;;;;;;;37.95;20.10;;;10.40;99.90;;;;;;5014436;28;20450;-51
2021/12/13 02:51:15;;;;;;;38.90;19.67;;;10.70;99.90;;;;;;5012562;28;20072;-52
2021/12/13 02:53:46;;;;;;;36.22;19.33;;;10.40;99.90;;;;;;5013702;28;20120;-53
2021/12/13 02:56:14;;;;;;;37.00;18.17;;;10.40;99.90;;;;;;5013694;28;20387;-53
2021/12/13 02:58:40;;;;;;;36.47;19.08;;;10.40;99.90;;;;;;4996821;28;20054;-52
2021/12/13 03:01:09;;;;;;;34.50;18.33;;;10.40;99.90;;;;;;5014274;28;20155;-52
2021/12/13 03:03:41;;;;;;;38.47;18.00;;;10.30;99.90;;;;;;5003884;28;20049;-51
2021/12/13 03:06:09;;;;;;;27.77;16.73;;;10.30;99.90;;;;;;5014265;28;20184;-51
2021/12/13 03:08:52;;;;;;;30.00;16.50;;;10.30;99.90;;;;;;5013566;28;20076;-51
2021/12/13 03:11:28;;;;;;;27.33;15.80;;;10.30;99.90;;;;;;5013294;28;20041;-55
2021/12/13 03:13:58;;;;;;;26.45;14.20;;;10.30;99.90;;;;;;5013826;28;20065;-51
2021/12/13 03:16:30;;;;;;;28.50;14.07;;;10.20;99.90;;;;;;5013808;28;20038;-52
2021/12/13 03:19:08;;;;;;;25.45;13.32;;;10.20;99.90;;;;;;5013171;28;20038;-52
2021/12/13 03:21:49;;;;;;;25.17;12.60;;;10.20;99.90;;;;;;5013363;28;20041;-52
2021/12/13 03:24:21;;;;;;;26.77;12.63;;;10.20;99.90;;;;;;5013363;28;20045;-52
2021/12/13 03:26:50;;;;;;;24.90;13.05;;;10.20;99.90;;;;;;5007912;28;20042;-52
2021/12/13 03:29:27;;;;;;;23.27;11.63;;;10.10;99.90;;;;;;5013609;28;20038;-52
2021/12/13 03:31:57;;;;;;;24.35;11.23;;;10.10;99.90;;;;;;4993822;28;20379;-57
2021/12/13 03:34:28;;;;;;;24.17;10.98;;;10.10;99.90;;;;;;5013143;28;20092;-54
2021/12/13 03:37:10;;;;;;;20.30;10.85;;;10.10;99.90;;;;;;5013486;28;20042;-51
2021/12/13 03:39:49;;;;;;;22.23;11.02;;;10.10;99.90;;;;;;5013324;28;20046;-52
2021/12/13 03:42:19;;;;;;;24.73;11.27;;;10.10;99.90;;;;;;5005969;28;20084;-54
2021/12/13 03:44:50;;;;;;;18.55;11.30;;;10.10;99.90;;;;;;5011841;28;20041;-52
2021/12/13 03:47:23;;;;;;;26.05;11.02;;;10.10;99.90;;;;;;5013594;28;20034;-51
2021/12/13 03:49:53;;;;;;;23.02;12.10;;;10.10;99.90;;;;;;5006485;28;20529;-55
2021/12/13 03:52:23;;;;;;;27.05;10.82;;;10.00;99.90;;;;;;5010043;28;20084;-53
2021/12/13 03:54:50;;;;;;;20.42;11.32;;;10.00;99.90;;;;;;5013289;28;20025;-52
2021/12/13 03:57:18;;;;;;;27.35;11.48;;;10.00;99.90;;;;;;4995025;28;20122;-52
2021/12/13 03:59:45;;;;;;;29.17;11.60;;;10.00;99.90;;;;;;5013023;28;20093;-55
2021/12/13 04:02:17;;;;;;;24.55;11.63;;;10.10;99.90;;;;;;5012380;28;20080;-52
2021/12/13 04:04:52;;;;;;;21.52;12.07;;;9.90;99.90;;;;;;5013046;28;20038;-52
2021/12/13 04:07:21;;;;;;;21.38;11.57;;;9.90;99.90;;;;;;5012772;28;20088;-52
2021/12/13 04:09:50;;;;;;;24.65;12.05;;;9.90;99.90;;;;;;5009252;28;20524;-52
2021/12/13 04:12:17;;;;;;;22.50;12.15;;;10.00;99.90;;;;;;5012560;28;20522;-55
2021/12/13 04:14:56;;;;;;;26.92;11.30;;;9.90;99.90;;;;;;5013016;28;20544;-52
2021/12/13 04:17:45;;;;;;;20.08;10.93;;;9.90;99.90;;;;;;5012499;28;20754;-54
2021/12/13 04:20:23;;;;;;;17.67;9.77;;;9.90;99.90;;;;;;5008428;28;20045;-52
2021/12/13 04:22:53;;;;;;;21.08;10.27;;;9.90;99.90;;;;;;5012503;28;20100;-52
2021/12/13 04:25:28;;;;;;;21.92;10.70;;;10.00;99.90;;;;;;5012726;28;20053;-52
2021/12/13 04:28:03;;;;;;;15.07;9.13;;;9.90;99.90;;;;;;5012450;28;20045;-52
2021/12/13 04:30:35;;;;;;;18.67;9.85;;;9.90;99.90;;;;;;5011589;28;20097;-52
2021/12/13 04:33:08;;;;;;;18.27;9.35;;;10.00;99.90;;;;;;5012327;28;20129;-52
2021/12/13 04:35:36;;;;;;;15.15;8.57;;;9.90;99.90;;;;;;5012440;28;20070;-57
2021/12/13 04:38:04;;;;;;;17.83;9.13;;;9.90;99.90;;;;;;5012477;28;20038;-57
2021/12/13 04:40:37;;;;;;;21.08;8.93;;;9.90;99.90;;;;;;5012255;28;20057;-58
2021/12/13 04:43:13;;;;;;;19.33;8.57;;;9.90;99.90;;;;;;5012094;28;20041;-57
2021/12/13 04:45:44;;;;;;;15.43;8.18;;;9.90;99.90;;;;;;5012498;28;20057;-57
2021/12/13 04:48:16;;;;;;;16.23;8.20;;;9.90;99.90;;;;;;5012108;28;20056;-58
2021/12/13 04:51:09;;;;;;;14.77;7.55;;;9.90;99.90;;;;;;5012465;28;20130;-55
2021/12/13 04:53:49;;;;;;;14.68;7.22;;;9.90;99.90;;;;;;5005202;28;20643;-52
2021/12/13 04:56:22;;;;;;;16.77;8.57;;;9.90;99.90;;;;;;5012341;28;20036;-55
2021/12/13 04:58:51;;;;;;;11.60;6.82;;;9.90;99.90;;;;;;5011706;28;20540;-52
2021/12/13 05:01:20;;;;;;;18.85;7.15;;;9.80;99.90;;;;;;5011991;28;20048;-55
2021/12/13 05:03:51;;;;;;;15.80;7.80;;;9.90;99.90;;;;;;5011493;28;20085;-53
2021/12/13 05:06:20;;;;;;;16.05;7.80;;;9.90;99.90;;;;;;5012297;28;20042;-52
2021/12/13 05:08:47;;;;;;;14.48;8.13;;;9.90;99.90;;;;;;5011432;28;20120;-52
2021/12/13 05:11:13;;;;;;;17.83;8.32;;;9.90;99.90;;;;;;5012053;28;20050;-55
2021/12/13 05:13:46;;;;;;;19.27;9.27;;;9.80;99.90;;;;;;5010785;28;20111;-54
2021/12/13 05:16:13;;;;;;;14.90;9.52;;;9.80;99.90;;;;;;5011910;28;20387;-54
2021/12/13 05:18:51;;;;;;;22.73;10.60;;;9.90;99.90;;;;;;5011797;28;20034;-52
2021/12/13 05:21:26;;;;;;;18.00;11.18;;;9.80;99.90;;;;;;5011778;28;20041;-51
2021/12/13 05:23:57;;;;;;;21.50;11.68;;;9.80;99.90;;;;;;5011612;28;20037;-52
2021/12/13 05:26:52;;;;;;;20.77;11.63;;;9.80;99.90;;;;;;5011303;28;20033;-51
2021/12/13 05:29:40;;;;;;;21.83;12.07;;;9.80;99.90;;;;;;5011513;28;20038;-52
2021/12/13 05:32:34;;;;;;;26.77;12.88;;;9.80;99.90;;;;;;5004291;28;20066;-54
2021/12/13 05:35:08;;;;;;;27.65;13.82;;;9.80;99.90;;;;;;5007306;28;20145;-52
2021/12/13 05:37:46;;;;;;;24.20;13.73;;;9.70;99.90;;;;;;5010557;28;20069;-53
2021/12/13 05:40:16;;;;;;;26.48;14.07;;;9.70;99.90;;;;;;5011860;28;20050;-54
2021/12/13 05:42:44;;;;;;;23.83;13.80;;;9.80;99.90;;;;;;5006584;28;20045;-53
2021/12/13 05:45:14;;;;;;;26.08;14.85;;;9.80;99.90;;;;;;5011346;28;20108;-52
2021/12/13 05:47:54;;;;;;;31.20;15.40;;;9.70;99.90;;;;;;5011307;28;20046;-52
2021/12/13 05:50:33;;;;;;;24.30;14.70;;;9.70;99.90;;;;;;5050174;22;20056;-52
2021/12/13 05:53:07;;;;;;;27.88;16.02;;;9.70;99.90;;;;;;5011894;28;20034;-52
2021/12/13 05:55:50;;;;;;;27.70;15.40;;;9.70;99.90;;;;;;5010540;28;20125;-52
2021/12/13 05:58:32;;;;;;;28.85;17.08;;;9.70;99.90;;;;;;5007106;28;20092;-52
2021/12/13 06:01:00;;;;;;;31.52;16.50;;;9.70;99.90;;;;;;5001150;28;20677;-52
2021/12/13 06:03:34;;;;;;;30.67;18.25;;;9.70;99.90;;;;;;4996970;28;20069;-51
2021/12/13 06:06:10;;;;;;;29.30;17.55;;;9.70;99.90;;;;;;4990228;28;20049;-53
2021/12/13 06:08:44;;;;;;;30.83;18.35;;;9.80;99.90;;;;;;4991796;28;20128;-52
2021/12/13 06:11:14;;;;;;;36.25;19.02;;;9.80;99.90;;;;;;4992690;28;20038;-52
2021/12/13 06:13:43;;;;;;;33.92;18.45;;;9.70;99.90;;;;;;4955831;28;20038;-51
2021/12/13 06:16:34;;;;;;;31.33;18.98;;;9.70;99.90;;;;;;4979989;28;20077;-52
2021/12/13 06:19:13;;;;;;;32.80;19.90;;;9.70;99.90;;;;;;4986750;28;20042;-51
2021/12/13 06:22:03;;;;;;;33.42;20.42;;;9.70;99.90;;;;;;4972479;28;20042;-52
2021/12/13 06:24:37;;;;;;;37.70;21.40;;;9.70;99.90;;;;;;4971365;28;20449;-54
2021/12/13 06:27:11;;;;;;;38.72;21.80;;;9.70;99.90;;;;;;4993858;28;20046;-52
2021/12/13 06:29:53;;;;;;;36.05;22.48;;;9.70;99.90;;;;;;4994080;28;20073;-52
2021/12/13 06:32:24;;;;;;;38.95;22.27;;;9.70;99.90;;;;;;4994568;28;20065;-53
2021/12/13 06:34:51;;;;;;;41.92;24.95;;;9.70;99.90;;;;;;4992775;28;20502;-52
2021/12/13 06:37:25;;;;;;;41.38;24.02;;;9.70;99.90;;;;;;4995507;28;20434;-53
2021/12/13 06:39:51;;;;;;;42.90;24.80;;;9.70;99.90;;;;;;4995144;28;20039;-52
2021/12/13 06:42:16;;;;;;;45.08;25.67;;;9.70;99.90;;;;;;4963550;28;20050;-56
2021/12/13 06:44:46;;;;;;;43.10;25.08;;;9.70;99.90;;;;;;4995463;28;20057;-56
2021/12/13 06:47:19;;;;;;;44.08;24.90;;;9.70;99.90;;;;;;4995239;28;20042;-57
2021/12/13 06:49:49;;;;;;;44.53;25.98;;;9.70;99.90;;;;;;4994468;28;20120;-56
2021/12/13 06:52:15;;;;;;;44.22;25.42;;;9.70;99.90;;;;;;4994746;28;20089;-57
2021/12/13 06:54:59;;;;;;;41.38;26.02;;;9.70;99.90;;;;;;4995075;28;20038;-56
2021/12/13 06:57:34;;;;;;;43.38;26.00;;;9.60;99.90;;;;;;4995032;28;20394;-56
2021/12/13 07:00:19;;;;;;;39.40;25.40;;;9.70;99.90;;;;;;4988194;28;20117;-55
2021/12/13 07:02:51;;;;;;;39.55;24.65;;;9.70;99.90;;;;;;4993573;28;20049;-56
2021/12/13 07:06:14;;;;;;;45.45;27.02;;;9.70;99.90;;;;;;4996531;28;20046;-53
2021/12/13 07:09:42;;;;;;;40.90;25.73;;;9.70;99.90;;;;;;4868664;29;20041;-56
2021/12/13 07:12:28;;;;;;;46.72;25.98;;;9.70;99.90;;;;;;4980506;28;20042;-52
2021/12/13 07:14:54;;;;;;;46.00;26.23;;;9.70;99.90;;;;;;4978604;28;20478;-52
2021/12/13 07:17:34;;;;;;;45.88;26.63;;;9.70;99.90;;;;;;4963805;28;20484;-53
2021/12/13 07:20:11;;;;;;;43.22;25.17;;;9.60;99.90;;;;;;4997275;28;20034;-52
2021/12/13 07:25:14;;;;;;;43.63;26.02;;;9.70;99.90;;;;;;5012565;28;20465;-55
2021/12/13 07:27:48;;;;;;;41.85;27.40;;;9.70;99.90;;;;;;5013702;28;20038;-54
2021/12/13 07:30:27;;;;;;;42.40;26.52;;;9.70;99.90;;;;;;5009177;28;20493;-54
2021/12/13 07:33:03;;;;;;;38.40;25.27;;;9.60;99.90;;;;;;5001830;28;20061;-53
2021/12/13 07:35:45;;;;;;;41.20;25.88;;;9.70;99.90;;;;;;4996561;28;20031;-56
2021/12/13 07:38:22;;;;;;;43.10;25.88;;;9.70;99.90;;;;;;4991475;28;20038;-55
2021/12/13 07:40:53;;;;;;;44.53;26.05;;;9.70;99.90;;;;;;4986370;28;20045;-56
2021/12/13 07:43:26;;;;;;;37.88;24.35;;;9.70;99.90;;;;;;4986396;28;20046;-56
2021/12/13 07:46:00;;;;;;;36.08;24.42;;;9.70;99.90;;;;;;4987865;28;20046;-56
2021/12/13 07:48:34;;;;;;;38.50;25.08;;;9.70;99.90;;;;;;4996198;28;20038;-56
2021/12/13 07:51:08;;;;;;;39.20;24.52;;;9.70;99.90;;;;;;4989273;28;20130;-56
2021/12/13 07:53:40;;;;;;;37.08;24.10;;;9.70;99.90;;;;;;4984983;28;20041;-55
2021/12/13 07:56:06;;;;;;;39.65;24.30;;;9.70;99.90;;;;;;4989999;28;20045;-56
2021/12/13 07:58:42;;;;;;;35.80;24.67;;;9.70;99.90;;;;;;4992525;28;20130;-56
2021/12/13 08:01:22;;;;;;;39.40;24.77;;;9.70;99.90;;;;;;4985665;28;20061;-56
2021/12/13 08:03:56;;;;;;;39.05;24.58;;;9.70;99.90;;;;;;4992730;28;20048;-52
2021/12/13 08:06:31;;;;;;;35.40;23.48;;;9.70;99.90;;;;;;4992445;28;20124;-55
2021/12/13 08:09:00;;;;;;;36.70;24.40;;;9.70;99.90;;;;;;4990295;28;20069;-56
2021/12/13 08:12:04;;;;;;;38.40;24.38;;;9.70;99.90;;;;;;4991760;28;20038;-56
2021/12/13 08:14:37;;;;;;;38.10;23.77;;;9.70;99.90;;;;;;4990702;28;20034;-56
2021/12/13 08:17:23;;;;;;;32.65;22.17;;;9.70;99.90;;;;;;4988167;28;20034;-56
2021/12/13 08:19:57;;;;;;;38.08;21.67;;;9.60;99.90;;;;;;4987257;28;20039;-56
2021/12/13 08:22:28;;;;;;;34.53;22.35;;;9.60;99.90;;;;;;4990453;28;20114;-54
2021/12/13 08:24:58;;;;;;;33.22;22.27;;;9.60;99.90;;;;;;4996433;28;20158;-54
2021/12/13 08:27:49;;;;;;;33.80;22.15;;;9.70;99.90;;;;;;4993344;28;20430;-56
2021/12/13 08:30:23;;;;;;;39.70;22.23;;;9.60;99.90;;;;;;4993252;28;20367;-54
2021/12/13 08:33:22;;;;;;;32.25;21.88;;;9.70;99.90;;;;;;4992920;28;20046;-53
2021/12/13 08:36:14;;;;;;;34.38;21.05;;;9.70;99.90;;;;;;4993214;28;20402;-52
2021/12/13 08:38:50;;;;;;;33.77;21.60;;;9.70;99.90;;;;;;4983950;28;20039;-55
2021/12/13 08:41:31;;;;;;;38.25;22.50;;;9.70;99.90;;;;;;4973709;28;20039;-53
2021/12/13 08:43:56;;;;;;;33.20;21.95;;;9.70;99.90;;;;;;4975371;28;20606;-55
2021/12/13 08:46:46;;;;;;;35.25;22.15;;;9.80;99.90;;;;;;4996235;28;20038;-53
2021/12/13 08:49:31;;;;;;;36.47;21.80;;;9.70;99.90;;;;;;4988582;28;20454;-54
2021/12/13 08:52:06;;;;;;;35.00;21.27;;;9.70;99.90;;;;;;4977272;28;20046;-53
2021/12/13 08:55:01;;;;;;;35.30;22.13;;;9.70;99.90;;;;;;4991517;28;20108;-53
2021/12/13 08:57:42;;;;;;;33.08;21.83;;;9.70;99.90;;;;;;4981869;28;20088;-54
2021/12/13 09:00:14;;;;;;;32.63;20.58;;;9.70;99.90;;;;;;4992691;28;20121;-55
2021/12/13 09:02:47;;;;;;;31.52;20.30;;;9.70;99.90;;;;;;4989589;28;20038;-53
2021/12/13 09:05:40;;;;;;;30.55;20.23;;;9.80;99.90;;;;;;4992592;28;20113;-53
2021/12/13 09:08:10;;;;;;;37.90;21.55;;;9.70;99.90;;;;;;4941437;28;20057;-54
2021/12/13 09:10:48;;;;;;;35.60;20.77;;;9.80;99.90;;;;;;4992502;28;20070;-54
2021/12/13 09:13:19;;;;;;;35.22;21.17;;;9.70;99.90;;;;;;4974660;28;20486;-53
2021/12/13 09:15:48;;;;;;;33.78;21.38;;;9.70;99.90;;;;;;4989014;28;20042;-55
2021/12/13 09:18:20;;;;;;;36.58;20.58;;;9.70;99.90;;;;;;4991426;28;20042;-52
2021/12/13 09:20:52;;;;;;;32.13;20.17;;;9.70;99.90;;;;;;4992727;28;20383;-53
2021/12/13 09:23:25;;;;;;;33.28;20.50;;;9.70;99.90;;;;;;4991756;28;20502;-53
2021/12/13 09:26:06;;;;;;;33.78;20.63;;;9.70;99.90;;;;;;4992180;28;20573;-53
2021/12/13 09:29:07;;;;;;;34.42;19.65;;;9.80;99.90;;;;;;4992265;28;20398;-53
2021/12/13 09:31:37;;;;;;;30.10;19.17;;;9.80;99.90;;;;;;4952073;28;20062;-54
2021/12/13 09:34:11;;;;;;;33.45;19.75;;;9.90;99.90;;;;;;4972563;28;20045;-53
2021/12/13 09:36:39;;;;;;;32.10;20.02;;;9.80;99.90;;;;;;4972733;28;20035;-55
2021/12/13 09:39:26;;;;;;;34.10;19.52;;;9.80;99.90;;;;;;4972641;28;20039;-55
2021/12/13 09:42:07;;;;;;;33.88;19.55;;;9.80;99.90;;;;;;4972685;28;20050;-53
2021/12/13 09:44:48;;;;;;;33.10;19.75;;;9.80;99.90;;;;;;4982742;28;20050;-53
2021/12/13 09:47:18;;;;;;;32.08;19.65;;;9.90;99.90;;;;;;4991915;28;20042;-53
2021/12/13 09:50:09;;;;;;;35.35;20.85;;;9.80;99.90;;;;;;4992154;28;20050;-53
2021/12/13 09:53:02;;;;;;;32.20;18.75;;;9.90;99.90;;;;;;4991712;28;20043;-53
2021/12/13 09:55:33;;;;;;;36.05;19.70;;;9.90;99.90;;;;;;4991814;28;20049;-53
2021/12/13 09:58:04;;;;;;;33.10;19.27;;;9.90;99.90;;;;;;4991733;28;20109;-55
2021/12/13 10:00:43;;;;;;;34.58;19.48;;;9.80;99.90;;;;;;4994068;28;20038;-53
2021/12/13 10:03:14;;;;;;;31.25;19.73;;;9.80;99.90;;;;;;4995571;28;20149;-54
2021/12/13 10:05:43;;;;;;;31.25;19.15;;;9.90;99.90;;;;;;4995810;28;20046;-53
2021/12/13 10:08:24;;;;;;;33.00;19.02;;;9.90;99.90;;;;;;4995561;28;20546;-54
2021/12/13 10:11:03;;;;;;;26.73;17.67;;;9.90;99.90;;;;;;4995730;28;20038;-56
2021/12/13 10:13:35;;;;;;;29.77;18.52;;;9.90;99.90;;;;;;4993093;28;20508;-53
2021/12/13 10:16:09;;;;;;;29.48;17.50;;;9.90;99.90;;;;;;4976139;28;20039;-54
2021/12/13 10:18:41;;;;;;;29.40;17.85;;;9.90;99.90;;;;;;4976161;28;20082;-55
2021/12/13 10:21:17;;;;;;;29.13;18.53;;;9.90;99.90;;;;;;4976202;28;20510;-53
2021/12/13 10:23:49;;;;;;;30.58;18.48;;;9.90;99.90;;;;;;4975884;28;20398;-54
2021/12/13 10:26:16;;;;;;;34.03;17.83;;;9.90;99.90;;;;;;4975939;28;20074;-55
2021/12/13 10:28:53;;;;;;;32.85;17.85;;;9.90;99.90;;;;;;4976609;28;20509;-54
2021/12/13 10:31:24;;;;;;;32.83;18.13;;;9.90;99.90;;;;;;4976202;28;20050;-56
2021/12/13 10:33:50;;;;;;;29.03;17.20;;;9.90;99.90;;;;;;4975715;28;20143;-54
2021/12/13 10:36:18;;;;;;;31.45;17.17;;;9.90;99.90;;;;;;4975791;28;20125;-53
2021/12/13 10:38:52;;;;;;;29.17;17.17;;;10.00;99.90;;;;;;4975645;28;20510;-54
2021/12/13 10:41:33;;;;;;;27.42;17.25;;;9.90;99.90;;;;;;4975509;28;20047;-53
2021/12/13 10:44:05;;;;;;;30.10;17.67;;;9.90;99.90;;;;;;4980927;28;20050;-55
2021/12/13 10:46:39;;;;;;;34.50;18.33;;;9.90;99.90;;;;;;4979748;28;20395;-54
2021/12/13 10:49:25;;;;;;;29.13;17.17;;;10.00;99.90;;;;;;4975307;28;20046;-55
2021/12/13 10:52:04;;;;;;;30.38;17.60;;;10.00;99.90;;;;;;4975184;28;20051;-55
2021/12/13 10:54:34;;;;;;;29.35;17.23;;;9.90;99.90;;;;;;4975353;28;20475;-53
2021/12/13 10:57:13;;;;;;;27.52;16.48;;;10.00;99.90;;;;;;4975181;28;20038;-54
2021/12/13 10:59:39;;;;;;;29.80;17.55;;;10.00;99.90;;;;;;4975341;28;20042;-55
2021/12/13 11:02:23;;;;;;;28.33;17.08;;;10.10;99.90;;;;;;4974836;28;20070;-53
2021/12/13 11:04:54;;;;;;;30.60;17.55;;;10.00;99.90;;;;;;4958085;28;20042;-54
2021/12/13 11:07:21;;;;;;;26.23;16.65;;;10.00;99.90;;;;;;4975508;28;20061;-56
2021/12/13 11:09:49;;;;;;;27.05;16.92;;;10.00;99.90;;;;;;4975268;28;20046;-56
2021/12/13 11:12:25;;;;;;;28.00;17.02;;;10.10;99.90;;;;;;4977250;28;20557;-56
2021/12/13 11:14:55;;;;;;;28.58;17.33;;;10.00;99.90;;;;;;4976942;28;20125;-56
2021/12/13 11:17:25;;;;;;;31.35;17.70;;;10.00;99.90;;;;;;4994474;28;20453;-56
2021/12/13 11:19:55;;;;;;;27.45;16.98;;;10.00;99.90;;;;;;4994565;28;20043;-56
2021/12/13 11:22:26;;;;;;;28.65;17.83;;;10.00;99.90;;;;;;4994202;28;20195;-56
2021/12/13 11:24:55;;;;;;;27.40;16.47;;;10.10;99.90;;;;;;4994322;28;20046;-56
2021/12/13 11:27:26;;;;;;;31.63;17.20;;;10.10;99.90;;;;;;4981760;28;20130;-56
2021/12/13 11:29:53;;;;;;;30.05;16.98;;;10.10;99.90;;;;;;4979306;28;20030;-56
2021/12/13 11:32:39;;;;;;;26.73;16.90;;;10.00;99.90;;;;;;4985510;28;20117;-56
2021/12/13 11:35:11;;;;;;;31.05;17.20;;;10.00;99.90;;;;;;4975107;28;20484;-56
2021/12/13 11:38:14;;;;;;;28.80;16.65;;;10.00;99.90;;;;;;4974465;28;20043;-56
2021/12/13 11:40:46;;;;;;;30.38;16.58;;;10.10;99.90;;;;;;4974808;28;20047;-56
2021/12/13 11:43:23;;;;;;;30.02;16.80;;;10.10;99.90;;;;;;4979168;28;20046;-56
2021/12/13 11:46:33;;;;;;;24.77;15.82;;;10.00;99.90;;;;;;4993827;28;20426;-56
2021/12/13 11:49:11;;;;;;;31.88;17.92;;;10.10;99.90;;;;;;4993969;28;20443;-56
2021/12/13 11:52:12;;;;;;;32.10;16.83;;;10.10;99.90;;;;;;4993877;28;20046;-56
2021/12/13 11:55:05;;;;;;;30.70;16.58;;;10.10;99.90;;;;;;4993977;28;20465;-56
2021/12/13 11:58:01;;;;;;;27.75;17.00;;;10.10;99.90;;;;;;4987984;28;20131;-56
2021/12/13 12:01:03;;;;;;;29.90;16.92;;;10.10;99.90;;;;;;4974551;28;20077;-55
2021/12/13 12:03:50;;;;;;;28.92;17.15;;;10.10;99.90;;;;;;4975426;28;20450;-53
2021/12/13 12:06:50;;;;;;;26.13;16.10;;;10.10;99.90;;;;;;4993569;28;20074;-55
2021/12/13 12:10:02;;;;;;;27.48;15.70;;;10.10;99.90;;;;;;4993771;28;20038;-54
2021/12/13 12:13:07;;;;;;;29.58;16.35;;;10.10;99.90;;;;;;4992712;28;20042;-53
2021/12/13 12:15:36;;;;;;;23.67;16.02;;;10.10;99.90;;;;;;4990158;28;20046;-54
2021/12/13 12:18:06;;;;;;;24.85;15.20;;;10.20;99.90;;;;;;4993459;28;20442;-56
2021/12/13 12:20:36;;;;;;;26.77;15.88;;;10.20;99.90;;;;;;4993382;28;20454;-56
2021/12/13 12:23:11;;;;;;;30.67;16.65;;;10.10;99.90;;;;;;4992634;28;20045;-56
2021/12/13 12:25:40;;;;;;;26.90;16.75;;;10.10;99.90;;;;;;4987609;28;20697;-56
2021/12/13 12:28:12;;;;;;;25.60;15.65;;;10.20;99.90;;;;;;4973759;28;20407;-56
2021/12/13 12:30:42;;;;;;;25.30;15.35;;;10.20;99.90;;;;;;4973905;28;20046;-56
2021/12/13 12:33:11;;;;;;;25.85;15.60;;;10.20;99.90;;;;;;4973505;28;20126;-56
2021/12/13 12:35:42;;;;;;;27.58;15.95;;;10.20;99.90;;;;;;4973669;28;20031;-56
2021/12/13 12:38:22;;;;;;;26.53;15.87;;;10.20;99.90;;;;;;4973582;28;20034;-56
2021/12/13 12:40:52;;;;;;;25.95;14.75;;;10.30;99.90;;;;;;4982090;28;20074;-56
2021/12/13 12:43:21;;;;;;;26.05;15.32;;;10.30;99.90;;;;;;4988332;28;20042;-56
2021/12/13 12:45:53;;;;;;;23.58;14.82;;;10.30;99.90;;;;;;4993117;28;20042;-56
2021/12/13 12:48:26;;;;;;;24.30;15.02;;;10.30;99.90;;;;;;4990001;28;20042;-56
2021/12/13 12:51:31;;;;;;;23.38;14.70;;;10.30;99.90;;;;;;4989877;28;20513;-56
2021/12/13 12:54:13;;;;;;;24.45;15.13;;;10.30;99.90;;;;;;4986377;28;20065;-56
2021/12/13 12:56:41;;;;;;;24.40;14.33;;;10.40;99.90;;;;;;4995412;28;20046;-57
2021/12/13 12:59:20;;;;;;;25.48;14.43;;;10.40;99.90;;;;;;4997515;28;20618;-56
2021/12/13 13:01:55;;;;;;;21.85;13.75;;;10.40;99.90;;;;;;4975463;28;20525;-56
2021/12/13 13:04:32;;;;;;;25.27;14.13;;;10.50;99.90;;;;;;4990971;28;20042;-56
2021/12/13 13:07:14;;;;;;;19.70;13.35;;;10.40;99.90;;;;;;4990701;28;20403;-57
2021/12/13 13:10:21;;;;;;;24.70;14.77;;;10.50;99.90;;;;;;4987513;28;20065;-56
2021/12/13 13:12:47;;;;;;;26.20;14.50;;;10.50;99.90;;;;;;4986759;28;20518;-56
2021/12/13 13:15:24;;;;;;;24.10;14.52;;;10.50;99.90;;;;;;4975782;28;20122;-56
2021/12/13 13:18:01;;;;;;;22.80;14.43;;;10.50;99.90;;;;;;4981032;28;20073;-56
2021/12/13 13:20:33;;;;;;;25.75;13.90;;;10.50;99.90;;;;;;4978305;28;20050;-55
2021/12/13 13:22:59;;;;;;;24.27;14.30;;;10.50;99.90;;;;;;4976614;28;20046;-56
2021/12/13 13:25:30;;;;;;;25.08;14.38;;;10.50;99.90;;;;;;4981684;28;20053;-56
2021/12/13 13:27:57;;;;;;;25.42;15.55;;;10.50;99.90;;;;;;4978444;28;20039;-56